Time;durP1;ratioP1;P1;durP2;ratioP2;P2;SDS_P1;SDS_P2;PMS_P1;PMS_P2;Temp;Humidity;BMP_temperature;BMP_pressure;BME280_temperature;BME280_humidity;BME280_pressure;Samples;Min_cycle;Max_cycle;Signal;HPM_P1;HPM_P2
2023/05/31 00:02:09;;;;;;;1.80;1.70;;;14.80;92.50;;;;;;5050236;28;20439;-67
2023/05/31 00:04:36;;;;;;;2.83;1.93;;;14.80;92.30;;;;;;5050698;28;20466;-67
2023/05/31 00:07:02;;;;;;;2.50;1.57;;;14.70;91.90;;;;;;5050543;28;20490;-66
2023/05/31 00:09:29;;;;;;;2.70;1.77;;;14.80;92.30;;;;;;5049909;28;20827;-67
2023/05/31 00:11:56;;;;;;;1.67;1.57;;;14.70;92.20;;;;;;5049785;28;20490;-67
2023/05/31 00:14:24;;;;;;;2.30;1.50;;;14.70;92.60;;;;;;5050030;28;20838;-66
2023/05/31 00:16:51;;;;;;;2.83;1.93;;;14.70;92.30;;;;;;5050569;28;20829;-66
2023/05/31 00:19:18;;;;;;;2.47;2.17;;;14.70;91.80;;;;;;5050243;28;20468;-66
2023/05/31 00:21:45;;;;;;;2.17;1.70;;;14.70;92.20;;;;;;5049748;28;20834;-66
2023/05/31 00:24:12;;;;;;;2.03;1.40;;;14.60;92.00;;;;;;5049808;28;20491;-66
2023/05/31 00:26:39;;;;;;;3.40;1.73;;;14.70;92.40;;;;;;5050375;28;20459;-67
2023/05/31 00:29:06;;;;;;;1.90;1.63;;;14.60;91.90;;;;;;5049520;28;20460;-67
2023/05/31 00:31:34;;;;;;;3.60;1.80;;;14.60;91.80;;;;;;5049825;28;20483;-67
2023/05/31 00:34:01;;;;;;;3.43;2.03;;;14.60;91.60;;;;;;5050506;28;20459;-67
2023/05/31 00:36:27;;;;;;;2.47;2.03;;;14.50;91.50;;;;;;5049922;28;20463;-67
2023/05/31 00:38:54;;;;;;;3.13;2.17;;;14.50;91.20;;;;;;5049928;28;20487;-66
2023/05/31 00:41:21;;;;;;;2.70;1.60;;;14.50;91.40;;;;;;5049597;28;20470;-66
2023/05/31 00:43:48;;;;;;;3.20;1.67;;;14.50;91.40;;;;;;5050126;28;20455;-67
2023/05/31 00:46:26;;;;;;;2.70;1.60;;;14.60;92.30;;;;;;5049648;28;20482;-66
2023/05/31 00:48:55;;;;;;;2.33;1.80;;;14.50;91.90;;;;;;5049836;28;20490;-67
2023/05/31 00:51:22;;;;;;;2.40;1.80;;;14.50;91.70;;;;;;5049307;28;20488;-67
2023/05/31 00:53:49;;;;;;;2.50;1.63;;;14.40;91.30;;;;;;5050143;28;21201;-67
2023/05/31 00:56:16;;;;;;;2.80;1.83;;;14.40;91.40;;;;;;5049509;28;20491;-67
2023/05/31 00:58:45;;;;;;;2.10;1.50;;;14.30;91.70;;;;;;5049663;28;20854;-66
2023/05/31 01:01:14;;;;;;;2.03;1.47;;;14.30;91.00;;;;;;5048942;28;20456;-66
2023/05/31 01:03:41;;;;;;;3.10;2.07;;;14.30;91.10;;;;;;5049773;28;20463;-67
2023/05/31 01:06:10;;;;;;;2.00;1.77;;;14.30;91.50;;;;;;5049444;28;20478;-67
2023/05/31 01:08:38;;;;;;;3.07;1.90;;;14.30;91.40;;;;;;5049397;28;21002;-67
2023/05/31 01:11:13;;;;;;;4.93;1.90;;;14.30;91.80;;;;;;5049341;28;20943;-67
2023/05/31 01:13:48;;;;;;;2.13;1.60;;;14.30;92.00;;;;;;5049157;28;20454;-67
2023/05/31 01:16:23;;;;;;;2.40;1.97;;;14.20;91.80;;;;;;5049379;28;20966;-67
2023/05/31 01:18:55;;;;;;;1.77;1.40;;;14.20;92.10;;;;;;5049719;28;20478;-67
2023/05/31 01:21:32;;;;;;;2.90;2.00;;;14.10;91.80;;;;;;5048994;28;20966;-67
2023/05/31 01:24:11;;;;;;;3.53;2.80;;;14.10;91.90;;;;;;5049227;28;20470;-66
2023/05/31 01:26:44;;;;;;;1.80;1.57;;;14.10;92.40;;;;;;5049610;28;20470;-67
2023/05/31 01:29:14;;;;;;;2.50;1.70;;;14.00;93.30;;;;;;5049051;28;20470;-67
2023/05/31 01:31:42;;;;;;;3.33;1.77;;;14.00;93.60;;;;;;5049139;28;21028;-66
2023/05/31 01:34:09;;;;;;;2.93;2.03;;;14.00;95.20;;;;;;5049414;28;20459;-66
2023/05/31 01:36:36;;;;;;;1.90;1.70;;;13.90;95.20;;;;;;5052681;28;20553;-67
2023/05/31 01:39:04;;;;;;;2.23;2.03;;;13.90;95.90;;;;;;5053134;28;20470;-67
2023/05/31 01:41:33;;;;;;;3.20;1.80;;;13.80;96.20;;;;;;5052555;28;20506;-67
2023/05/31 01:44:01;;;;;;;2.10;1.60;;;13.70;96.70;;;;;;5053131;28;20506;-66
2023/05/31 01:46:28;;;;;;;2.13;1.80;;;13.60;96.30;;;;;;5052742;28;20463;-67
2023/05/31 01:48:56;;;;;;;2.57;2.23;;;13.50;96.40;;;;;;5052780;28;21031;-67
2023/05/31 01:51:24;;;;;;;2.03;1.60;;;13.50;96.80;;;;;;5052443;28;20482;-67
2023/05/31 01:53:51;;;;;;;1.70;1.60;;;13.40;96.80;;;;;;5053305;28;20463;-66
2023/05/31 01:56:19;;;;;;;1.90;1.47;;;13.30;97.40;;;;;;5053331;28;20463;-67
2023/05/31 01:58:48;;;;;;;3.30;1.70;;;13.20;97.10;;;;;;5052790;28;20479;-67
2023/05/31 02:01:18;;;;;;;3.47;2.10;;;13.20;96.90;;;;;;5052177;28;20544;-67
2023/05/31 02:03:45;;;;;;;2.40;1.50;;;13.10;97.20;;;;;;5052273;28;20460;-67
2023/05/31 02:06:13;;;;;;;1.83;1.63;;;13.10;97.10;;;;;;5052460;28;20459;-67
2023/05/31 02:08:40;;;;;;;2.37;1.53;;;13.00;97.10;;;;;;5052198;28;20479;-67
2023/05/31 02:11:08;;;;;;;2.33;1.77;;;13.00;97.40;;;;;;5052412;28;20491;-65
2023/05/31 02:13:35;;;;;;;3.83;1.97;;;12.90;97.60;;;;;;5051384;28;20475;-67
2023/05/31 02:16:03;;;;;;;2.00;1.70;;;12.80;97.60;;;;;;5052720;28;20459;-68
2023/05/31 02:18:32;;;;;;;2.13;1.93;;;12.80;97.90;;;;;;5051890;28;20483;-67
2023/05/31 02:20:58;;;;;;;1.73;1.60;;;12.80;97.80;;;;;;5052306;28;20467;-67
2023/05/31 02:23:25;;;;;;;2.70;1.70;;;12.70;98.00;;;;;;5051509;28;20456;-67
2023/05/31 02:25:52;;;;;;;2.20;1.70;;;12.60;97.80;;;;;;5052547;28;20463;-66
2023/05/31 02:28:19;;;;;;;2.20;1.50;;;12.60;98.00;;;;;;5052071;28;20483;-67
2023/05/31 02:30:55;;;;;;;2.80;1.90;;;12.50;98.50;;;;;;5051775;28;20464;-67
2023/05/31 02:33:22;;;;;;;2.00;1.70;;;12.40;98.20;;;;;;5052008;28;20482;-67
2023/05/31 02:35:50;;;;;;;2.03;1.60;;;12.40;97.90;;;;;;5052238;28;20534;-67
2023/05/31 02:38:17;;;;;;;2.23;1.67;;;12.40;98.20;;;;;;5051974;28;20511;-67
2023/05/31 02:40:43;;;;;;;2.40;1.60;;;12.30;98.70;;;;;;5051560;28;20489;-67
2023/05/31 02:43:10;;;;;;;2.20;1.50;;;12.30;98.60;;;;;;5052241;28;20459;-67
2023/05/31 02:45:37;;;;;;;1.90;1.53;;;12.20;98.50;;;;;;5051658;28;20459;-66
2023/05/31 02:48:05;;;;;;;2.10;1.77;;;12.10;98.70;;;;;;5050850;28;20483;-67
2023/05/31 02:50:32;;;;;;;2.80;1.90;;;12.10;98.90;;;;;;5051096;28;20490;-66
2023/05/31 02:53:03;;;;;;;2.93;1.93;;;12.00;99.10;;;;;;5052129;28;20485;-67
2023/05/31 02:55:30;;;;;;;4.13;1.67;;;12.00;99.10;;;;;;5051364;28;20459;-67
2023/05/31 02:57:57;;;;;;;2.20;1.73;;;11.90;98.80;;;;;;5051803;28;20506;-67
2023/05/31 03:00:25;;;;;;;1.90;1.50;;;11.90;98.70;;;;;;5051041;28;20463;-66
2023/05/31 03:02:52;;;;;;;1.90;1.57;;;11.80;98.90;;;;;;5052266;28;20505;-67
2023/05/31 03:05:19;;;;;;;3.50;1.83;;;11.80;98.90;;;;;;5051607;28;20637;-67
2023/05/31 03:07:46;;;;;;;3.30;2.30;;;11.80;99.60;;;;;;5051681;28;20479;-67
2023/05/31 03:10:14;;;;;;;2.90;1.90;;;11.70;99.90;;;;;;5050899;28;20463;-66
2023/05/31 03:12:41;;;;;;;2.13;1.50;;;11.70;99.60;;;;;;5051215;28;20490;-66
2023/05/31 03:15:09;;;;;;;2.78;2.13;;;11.60;99.90;;;;;;5051504;28;20470;-67
2023/05/31 03:17:37;;;;;;;2.88;2.30;;;11.60;99.90;;;;;;5050992;28;20221;-67
2023/05/31 03:20:06;;;;;;;2.88;2.00;;;11.50;99.90;;;;;;5051020;28;20201;-67
2023/05/31 03:22:33;;;;;;;5.33;2.00;;;11.50;99.90;;;;;;5050558;28;20681;-67
2023/05/31 03:25:00;;;;;;;2.25;1.73;;;11.50;99.90;;;;;;5051287;28;20474;-67
2023/05/31 03:27:28;;;;;;;4.77;1.97;;;11.40;99.90;;;;;;5050546;28;20225;-66
2023/05/31 03:29:55;;;;;;;1.80;1.43;;;11.40;99.90;;;;;;5050402;28;20459;-67
2023/05/31 03:32:21;;;;;;;2.60;2.00;;;11.40;99.90;;;;;;5031404;28;20564;-67
2023/05/31 03:34:48;;;;;;;3.00;2.17;;;11.40;99.90;;;;;;5030490;28;20550;-66
2023/05/31 03:37:15;;;;;;;1.95;1.73;;;11.40;99.90;;;;;;5027331;28;20508;-67
2023/05/31 03:39:42;;;;;;;2.27;1.80;;;11.40;99.90;;;;;;5027398;28;20200;-68
2023/05/31 03:42:09;;;;;;;2.25;1.85;;;11.30;99.90;;;;;;5027808;28;20457;-66
2023/05/31 03:44:37;;;;;;;2.65;1.85;;;11.30;99.90;;;;;;5031224;28;20194;-67
2023/05/31 03:47:04;;;;;;;2.40;1.80;;;11.30;99.90;;;;;;5028113;28;20711;-67
2023/05/31 03:49:31;;;;;;;2.42;1.80;;;11.20;99.90;;;;;;5031685;28;20460;-66
2023/05/31 03:51:58;;;;;;;2.53;1.73;;;11.20;99.90;;;;;;5020405;28;20206;-67
2023/05/31 03:54:25;;;;;;;2.22;1.60;;;11.20;99.90;;;;;;5022978;28;20264;-67
2023/05/31 03:56:52;;;;;;;3.60;2.10;;;11.20;99.90;;;;;;5027937;28;20210;-67
2023/05/31 03:59:19;;;;;;;2.50;2.10;;;11.20;99.90;;;;;;5022153;28;20492;-67
2023/05/31 04:01:47;;;;;;;3.40;1.67;;;11.20;99.90;;;;;;5029609;28;20691;-66
2023/05/31 04:04:14;;;;;;;2.55;1.85;;;11.20;99.90;;;;;;5026023;28;20207;-67
2023/05/31 04:06:41;;;;;;;4.40;2.50;;;11.20;99.90;;;;;;5030222;28;20211;-66
2023/05/31 04:09:08;;;;;;;4.40;1.98;;;11.10;99.90;;;;;;5026157;28;20202;-67
2023/05/31 04:11:34;;;;;;;3.13;2.22;;;11.10;99.90;;;;;;5025082;28;20543;-67
2023/05/31 04:14:01;;;;;;;2.40;2.10;;;11.20;99.90;;;;;;5027466;28;20218;-67
2023/05/31 04:16:28;;;;;;;6.05;2.22;;;11.20;99.90;;;;;;5028121;28;20206;-68
2023/05/31 04:18:56;;;;;;;2.70;2.20;;;11.20;99.90;;;;;;5027721;28;20258;-67
2023/05/31 04:21:22;;;;;;;3.85;2.20;;;11.20;99.90;;;;;;5026363;28;20206;-67
2023/05/31 04:23:49;;;;;;;4.47;2.80;;;11.30;99.90;;;;;;5028514;28;20189;-67
2023/05/31 04:26:17;;;;;;;3.10;2.40;;;11.30;99.90;;;;;;5025291;28;20685;-68
2023/05/31 04:28:44;;;;;;;2.00;1.80;;;11.30;99.90;;;;;;5027672;28;20541;-68
2023/05/31 04:31:11;;;;;;;4.25;2.30;;;11.40;99.90;;;;;;5049005;28;20208;-68
2023/05/31 04:33:38;;;;;;;2.83;2.00;;;11.50;99.90;;;;;;5048047;28;20220;-68
2023/05/31 04:36:08;;;;;;;3.78;2.00;;;11.50;99.90;;;;;;5049734;28;20205;-68
2023/05/31 04:38:35;;;;;;;3.70;1.95;;;11.50;99.90;;;;;;5049477;28;20259;-68
2023/05/31 04:41:03;;;;;;;3.38;2.33;;;11.60;99.90;;;;;;5049859;28;20287;-67
2023/05/31 04:43:29;;;;;;;2.35;2.05;;;11.70;99.90;;;;;;5049601;28;20225;-68
2023/05/31 04:45:57;;;;;;;2.07;1.60;;;11.80;99.90;;;;;;5049975;28;20227;-67
2023/05/31 04:48:26;;;;;;;2.30;1.90;;;11.80;99.90;;;;;;5049541;28;20909;-67
2023/05/31 04:50:54;;;;;;;2.30;1.93;;;11.90;99.90;;;;;;5049608;28;20521;-67
2023/05/31 04:53:23;;;;;;;2.83;2.23;;;12.00;99.90;;;;;;5049645;28;20533;-67
2023/05/31 04:55:51;;;;;;;3.00;2.40;;;12.00;99.90;;;;;;5049743;28;20459;-67
2023/05/31 04:58:19;;;;;;;2.83;2.60;;;12.10;99.90;;;;;;5049896;28;20224;-67
2023/05/31 05:00:46;;;;;;;2.23;1.80;;;12.20;99.90;;;;;;5049119;28;20467;-68
2023/05/31 05:03:13;;;;;;;2.73;1.97;;;12.20;99.90;;;;;;5050010;28;20509;-68
2023/05/31 05:05:40;;;;;;;3.83;1.65;;;12.20;99.90;;;;;;5045519;28;20956;-67
2023/05/31 05:08:07;;;;;;;4.43;2.27;;;12.30;99.90;;;;;;5023751;28;20274;-69
2023/05/31 05:10:35;;;;;;;4.80;2.07;;;12.40;99.90;;;;;;5028482;28;21019;-66
2023/05/31 05:13:01;;;;;;;2.10;1.90;;;12.40;99.90;;;;;;5029182;28;20483;-68
2023/05/31 05:15:28;;;;;;;2.40;1.70;;;12.50;99.90;;;;;;5028998;28;20852;-69
2023/05/31 05:17:55;;;;;;;2.10;1.80;;;12.60;99.90;;;;;;5029833;28;20484;-69
2023/05/31 05:20:23;;;;;;;2.97;1.80;;;12.70;99.90;;;;;;5031462;28;20824;-65
2023/05/31 05:22:51;;;;;;;2.80;1.80;;;12.80;99.90;;;;;;5034191;28;20511;-70
2023/05/31 05:25:18;;;;;;;2.17;1.97;;;12.90;99.90;;;;;;5030376;28;20496;-73
2023/05/31 05:27:46;;;;;;;3.30;2.20;;;13.00;99.90;;;;;;5034703;28;20490;-73
2023/05/31 05:30:14;;;;;;;4.90;2.37;;;13.10;99.90;;;;;;5031269;28;20452;-72
2023/05/31 05:32:40;;;;;;;2.80;2.37;;;13.30;99.50;;;;;;5034648;28;21065;-72
2023/05/31 05:35:08;;;;;;;2.60;1.77;;;13.40;99.70;;;;;;5032235;28;20479;-72
2023/05/31 05:37:35;;;;;;;1.60;1.40;;;13.50;99.20;;;;;;5033332;28;20547;-72
2023/05/31 05:40:02;;;;;;;2.70;1.63;;;13.60;98.50;;;;;;5032550;28;20959;-69
2023/05/31 05:42:31;;;;;;;2.27;1.60;;;13.80;97.30;;;;;;5031320;28;20899;-69
2023/05/31 05:44:59;;;;;;;3.00;2.27;;;13.90;97.00;;;;;;5032155;28;21042;-69
2023/05/31 05:47:26;;;;;;;1.90;1.57;;;14.10;97.80;;;;;;5033128;28;20485;-73
2023/05/31 05:49:53;;;;;;;2.53;1.60;;;14.20;97.70;;;;;;5025613;28;20860;-71
2023/05/31 05:52:20;;;;;;;3.47;1.73;;;14.30;97.00;;;;;;5027574;28;20987;-69
2023/05/31 05:54:46;;;;;;;2.33;1.50;;;14.30;97.30;;;;;;5029097;28;20478;-71
2023/05/31 05:57:13;;;;;;;3.07;1.70;;;14.40;96.40;;;;;;5026430;28;20488;-71
2023/05/31 05:59:41;;;;;;;2.57;1.87;;;14.50;96.30;;;;;;5028765;28;20475;-71
2023/05/31 06:02:09;;;;;;;1.40;1.30;;;14.60;96.20;;;;;;5026355;28;21913;-70
2023/05/31 06:04:35;;;;;;;1.83;1.67;;;14.70;95.80;;;;;;5024808;28;20978;-70
2023/05/31 06:07:02;;;;;;;3.60;1.60;;;14.80;95.70;;;;;;5026823;28;21018;-69
2023/05/31 06:09:29;;;;;;;3.73;2.07;;;14.80;97.00;;;;;;5037924;28;20883;-68
2023/05/31 06:11:56;;;;;;;4.43;1.80;;;15.00;96.90;;;;;;5053110;28;20456;-72
2023/05/31 06:14:22;;;;;;;4.50;2.43;;;15.00;96.90;;;;;;5053130;28;21006;-72
2023/05/31 06:16:49;;;;;;;2.10;1.60;;;15.20;97.30;;;;;;5052969;28;20864;-71
2023/05/31 06:19:17;;;;;;;2.70;1.80;;;15.20;95.50;;;;;;5053217;28;20463;-71
2023/05/31 06:21:44;;;;;;;3.83;1.50;;;15.30;96.00;;;;;;5052284;28;20466;-71
2023/05/31 06:24:10;;;;;;;2.70;1.77;;;15.30;95.40;;;;;;5053073;28;20962;-71
2023/05/31 06:26:38;;;;;;;2.20;1.77;;;15.40;95.40;;;;;;5052228;28;20459;-70
2023/05/31 06:29:05;;;;;;;2.53;1.80;;;15.50;95.90;;;;;;5045175;28;20459;-71
2023/05/31 06:31:32;;;;;;;3.87;1.80;;;15.60;96.30;;;;;;5052129;28;20460;-71
2023/05/31 06:33:58;;;;;;;2.70;2.03;;;15.70;95.50;;;;;;5053233;28;20484;-68
2023/05/31 06:36:26;;;;;;;2.50;1.93;;;15.70;95.80;;;;;;5052540;28;20463;-70
2023/05/31 06:38:53;;;;;;;3.20;1.90;;;15.80;95.60;;;;;;5036107;28;20487;-69
2023/05/31 06:41:20;;;;;;;2.47;1.80;;;15.90;95.90;;;;;;5054506;28;20455;-72
2023/05/31 06:43:47;;;;;;;2.43;1.70;;;16.00;95.70;;;;;;5054681;28;20464;-70
2023/05/31 06:46:13;;;;;;;1.83;1.73;;;16.10;95.10;;;;;;5056548;28;20468;-69
2023/05/31 06:48:40;;;;;;;3.93;2.10;;;16.10;95.00;;;;;;5059521;28;20476;-68
2023/05/31 06:51:07;;;;;;;2.60;1.80;;;16.10;94.70;;;;;;5053245;28;20464;-67
2023/05/31 06:53:35;;;;;;;2.07;1.87;;;16.20;94.90;;;;;;5052080;28;20478;-68
2023/05/31 06:56:02;;;;;;;3.53;2.30;;;16.30;96.00;;;;;;5051978;28;20533;-67
2023/05/31 06:58:31;;;;;;;4.43;2.10;;;16.40;95.80;;;;;;5053302;28;20545;-71
2023/05/31 07:00:58;;;;;;;3.33;1.93;;;16.50;94.90;;;;;;5053604;28;20467;-71
2023/05/31 07:03:24;;;;;;;2.30;2.10;;;16.60;95.80;;;;;;5052466;28;20455;-68
2023/05/31 07:05:51;;;;;;;2.93;1.97;;;16.70;95.50;;;;;;5051937;28;20470;-68
2023/05/31 07:08:18;;;;;;;2.40;2.10;;;16.70;94.90;;;;;;5051857;28;20483;-68
2023/05/31 07:10:46;;;;;;;3.30;2.43;;;16.80;96.10;;;;;;5051856;28;20463;-71
2023/05/31 07:13:13;;;;;;;2.27;2.07;;;17.00;95.50;;;;;;5053282;28;20483;-71
2023/05/31 07:15:39;;;;;;;2.27;2.07;;;17.10;95.30;;;;;;5045079;28;20467;-71
2023/05/31 07:18:06;;;;;;;2.10;1.90;;;17.20;95.50;;;;;;5053768;28;20481;-70
2023/05/31 07:20:33;;;;;;;4.33;2.23;;;17.30;95.60;;;;;;5052051;28;20456;-68
2023/05/31 07:22:59;;;;;;;2.93;2.00;;;17.40;95.60;;;;;;5046975;28;20460;-73
2023/05/31 07:25:26;;;;;;;1.80;1.53;;;17.50;95.30;;;;;;5041674;28;20967;-68
2023/05/31 07:27:54;;;;;;;6.77;2.63;;;17.70;95.30;;;;;;5050830;28;20494;-68
2023/05/31 07:30:21;;;;;;;3.33;2.23;;;17.80;94.50;;;;;;5050160;28;20968;-68
2023/05/31 07:32:48;;;;;;;3.30;1.93;;;17.80;94.40;;;;;;5051536;28;20466;-71
2023/05/31 07:35:14;;;;;;;2.03;1.73;;;17.90;95.30;;;;;;5052365;28;20483;-71
2023/05/31 07:37:41;;;;;;;3.37;1.97;;;18.00;95.10;;;;;;5052418;28;20870;-72
2023/05/31 07:40:09;;;;;;;5.23;2.40;;;18.10;95.50;;;;;;5036581;28;20527;-68
2023/05/31 07:42:36;;;;;;;3.40;2.00;;;18.20;94.30;;;;;;5050598;28;20463;-71
2023/05/31 07:45:04;;;;;;;4.47;2.07;;;18.30;95.00;;;;;;5053590;28;20977;-70
2023/05/31 07:47:32;;;;;;;4.77;1.90;;;18.40;94.60;;;;;;5031560;28;20893;-71
2023/05/31 07:49:59;;;;;;;3.10;2.30;;;18.40;94.10;;;;;;5052586;28;20969;-70
2023/05/31 07:52:26;;;;;;;3.63;1.90;;;18.50;94.30;;;;;;5054725;28;20991;-71
2023/05/31 07:54:53;;;;;;;2.43;2.07;;;18.60;95.00;;;;;;5052755;28;20490;-70
2023/05/31 07:57:19;;;;;;;2.40;2.10;;;18.70;94.60;;;;;;5054424;28;20491;-71
2023/05/31 07:59:46;;;;;;;2.53;1.93;;;18.80;94.20;;;;;;5053054;28;20464;-67
2023/05/31 08:02:15;;;;;;;3.60;2.30;;;18.90;94.10;;;;;;5050880;28;20464;-67
2023/05/31 08:04:43;;;;;;;2.53;1.90;;;18.90;93.30;;;;;;5050724;28;20850;-67
2023/05/31 08:07:09;;;;;;;2.43;1.80;;;19.00;94.20;;;;;;5050562;28;20476;-67
2023/05/31 08:09:36;;;;;;;2.83;2.20;;;19.10;93.40;;;;;;5050001;28;20959;-68
2023/05/31 08:12:04;;;;;;;2.03;1.80;;;19.10;93.50;;;;;;5051372;28;20494;-71
2023/05/31 08:14:30;;;;;;;2.00;1.80;;;19.30;94.60;;;;;;5048786;28;20482;-71
2023/05/31 08:16:57;;;;;;;2.83;2.13;;;19.30;93.90;;;;;;5053427;28;20486;-72
2023/05/31 08:19:25;;;;;;;2.30;1.80;;;19.40;93.70;;;;;;5053705;28;20491;-71
2023/05/31 08:21:52;;;;;;;3.47;2.30;;;19.50;94.20;;;;;;5035547;28;20463;-72
2023/05/31 08:24:19;;;;;;;2.80;1.97;;;19.60;94.10;;;;;;5029243;28;20457;-71
2023/05/31 08:26:46;;;;;;;3.47;2.10;;;19.70;94.40;;;;;;5032607;28;20522;-71
2023/05/31 08:29:12;;;;;;;3.07;2.07;;;19.90;94.00;;;;;;5027688;28;20472;-68
2023/05/31 08:31:39;;;;;;;3.53;2.20;;;19.90;93.00;;;;;;5025911;28;20465;-67
2023/05/31 08:34:07;;;;;;;3.23;2.50;;;20.00;94.80;;;;;;5041631;28;20515;-67
2023/05/31 08:36:35;;;;;;;3.57;2.00;;;20.10;94.10;;;;;;5025616;28;20880;-68
2023/05/31 08:39:03;;;;;;;2.93;2.13;;;20.20;93.30;;;;;;5026477;28;20461;-67
2023/05/31 08:41:35;;;;;;;2.90;2.37;;;20.30;93.80;;;;;;5042556;28;20461;-67
2023/05/31 08:44:03;;;;;;;2.20;1.83;;;20.40;92.20;;;;;;5044553;28;21002;-68
2023/05/31 08:46:30;;;;;;;3.30;2.20;;;20.50;94.60;;;;;;5049626;28;20883;-67
2023/05/31 08:49:01;;;;;;;2.87;2.07;;;20.60;93.40;;;;;;5049253;28;20554;-69
2023/05/31 08:51:28;;;;;;;3.60;2.33;;;20.60;92.80;;;;;;5049520;28;20460;-67
2023/05/31 08:53:58;;;;;;;2.10;1.80;;;20.60;93.20;;;;;;5048971;28;20480;-69
2023/05/31 08:56:26;;;;;;;3.10;2.50;;;20.80;94.60;;;;;;5049786;28;20479;-68
2023/05/31 08:58:55;;;;;;;3.10;2.20;;;21.00;94.10;;;;;;5049567;28;20561;-69
2023/05/31 09:01:23;;;;;;;3.67;2.27;;;21.10;94.80;;;;;;5036683;28;20463;-69
2023/05/31 09:03:51;;;;;;;2.80;2.03;;;21.10;93.30;;;;;;5028308;28;20462;-69
2023/05/31 09:06:18;;;;;;;2.47;2.27;;;21.20;92.40;;;;;;5049631;28;20465;-69
2023/05/31 09:08:45;;;;;;;5.53;2.60;;;21.30;94.40;;;;;;5041672;28;20488;-69
2023/05/31 09:11:14;;;;;;;2.73;2.33;;;21.40;92.80;;;;;;5045409;28;20461;-69
2023/05/31 09:13:42;;;;;;;2.60;2.07;;;21.40;93.10;;;;;;5048848;28;20683;-68
2023/05/31 09:16:08;;;;;;;5.70;2.83;;;21.50;93.80;;;;;;5049324;28;20482;-69
2023/05/31 09:18:39;;;;;;;3.40;2.17;;;21.60;92.20;;;;;;5049035;28;20514;-68
2023/05/31 09:21:09;;;;;;;3.03;2.50;;;21.80;92.80;;;;;;5049671;28;20471;-68
2023/05/31 09:23:36;;;;;;;2.43;2.13;;;21.80;92.80;;;;;;5049549;28;20525;-68
2023/05/31 09:26:07;;;;;;;3.10;2.07;;;21.80;93.00;;;;;;5036360;28;20476;-70
2023/05/31 09:28:36;;;;;;;2.77;2.30;;;21.90;92.10;;;;;;5023305;28;20487;-68
2023/05/31 09:31:04;;;;;;;2.33;2.13;;;21.90;91.50;;;;;;5049284;28;20466;-69
2023/05/31 09:33:40;;;;;;;2.70;2.20;;;21.90;91.70;;;;;;5046916;28;20460;-68
2023/05/31 09:36:07;;;;;;;3.00;2.10;;;21.90;91.80;;;;;;5027290;28;20949;-68
2023/05/31 09:38:36;;;;;;;6.10;2.40;;;22.10;93.50;;;;;;5026382;28;20476;-69
2023/05/31 09:41:14;;;;;;;2.93;2.23;;;22.30;94.10;;;;;;5024477;28;20469;-68
2023/05/31 09:43:44;;;;;;;3.07;2.70;;;22.40;91.30;;;;;;5025429;28;20471;-68
2023/05/31 09:46:15;;;;;;;3.33;2.83;;;22.40;92.00;;;;;;5026689;28;20500;-69
2023/05/31 09:48:43;;;;;;;3.33;2.27;;;22.50;91.90;;;;;;5045709;28;20479;-69
2023/05/31 09:51:10;;;;;;;2.60;2.10;;;22.50;91.20;;;;;;5022181;28;20463;-68
2023/05/31 09:53:41;;;;;;;2.40;1.93;;;22.60;90.10;;;;;;5020566;28;20846;-68
2023/05/31 09:56:12;;;;;;;2.90;1.90;;;22.70;90.60;;;;;;5035512;28;20824;-70
2023/05/31 09:58:40;;;;;;;3.93;2.33;;;22.70;90.50;;;;;;5052473;28;20491;-67
2023/05/31 10:01:09;;;;;;;2.70;1.90;;;22.80;89.00;;;;;;5052804;28;20485;-68
2023/05/31 10:03:36;;;;;;;3.43;2.00;;;22.80;90.30;;;;;;5052615;28;20885;-68
2023/05/31 10:06:03;;;;;;;2.47;2.03;;;22.90;88.50;;;;;;5053321;28;20467;-69
2023/05/31 10:08:32;;;;;;;4.37;2.50;;;22.90;90.20;;;;;;5052737;28;20493;-68
2023/05/31 10:11:00;;;;;;;2.83;2.53;;;22.90;89.60;;;;;;5051967;28;20464;-68
2023/05/31 10:13:29;;;;;;;4.20;2.03;;;23.00;89.80;;;;;;5052695;28;20514;-68
2023/05/31 10:15:57;;;;;;;5.87;2.70;;;23.20;88.40;;;;;;5052047;28;21056;-68
2023/05/31 10:18:29;;;;;;;2.53;2.10;;;23.30;90.00;;;;;;5052564;28;20488;-68
2023/05/31 10:21:01;;;;;;;2.40;2.07;;;23.40;87.50;;;;;;5052200;28;20472;-68
2023/05/31 10:23:29;;;;;;;2.20;2.00;;;23.50;88.50;;;;;;5052571;28;20491;-68
2023/05/31 10:26:05;;;;;;;2.40;2.00;;;23.50;90.00;;;;;;5052082;28;20498;-69
2023/05/31 10:28:37;;;;;;;3.00;2.23;;;23.60;88.70;;;;;;5052885;28;20489;-68
2023/05/31 10:31:04;;;;;;;4.10;1.83;;;23.60;87.90;;;;;;5052052;28;20462;-68
2023/05/31 10:33:33;;;;;;;2.70;2.23;;;23.60;89.90;;;;;;5052472;28;20974;-67
2023/05/31 10:36:00;;;;;;;3.00;1.50;;;23.60;83.40;;;;;;5052075;28;20484;-68
2023/05/31 10:38:31;;;;;;;4.73;2.07;;;23.60;89.70;;;;;;5051906;28;20488;-68
2023/05/31 10:41:04;;;;;;;3.83;2.03;;;23.70;90.40;;;;;;5051736;28;20467;-68
2023/05/31 10:43:37;;;;;;;1.90;1.70;;;23.90;90.40;;;;;;5053209;28;20471;-68
2023/05/31 10:46:10;;;;;;;3.80;2.40;;;24.10;89.00;;;;;;5046748;28;20556;-67
2023/05/31 10:48:46;;;;;;;2.47;1.90;;;24.30;89.20;;;;;;5052005;28;20472;-67
2023/05/31 10:51:13;;;;;;;2.90;2.00;;;24.40;90.10;;;;;;5038027;28;20469;-69
2023/05/31 10:53:40;;;;;;;2.20;1.90;;;24.60;86.50;;;;;;5052261;28;20460;-69
2023/05/31 10:56:09;;;;;;;3.03;2.13;;;24.60;87.40;;;;;;5035629;28;20827;-68
2023/05/31 10:58:37;;;;;;;4.80;2.23;;;24.60;89.50;;;;;;5052211;28;20536;-69
2023/05/31 11:01:06;;;;;;;4.00;2.00;;;24.70;88.40;;;;;;5051934;28;20484;-68
2023/05/31 11:03:35;;;;;;;2.80;2.23;;;24.60;84.90;;;;;;5052444;28;20468;-69
2023/05/31 11:06:08;;;;;;;3.97;2.20;;;24.60;87.30;;;;;;5051621;28;20985;-68
2023/05/31 11:08:35;;;;;;;2.43;2.10;;;24.60;84.00;;;;;;5050506;28;20868;-70
2023/05/31 11:11:27;;;;;;;2.60;1.97;;;24.60;85.70;;;;;;5051757;28;20485;-70
2023/05/31 11:13:59;;;;;;;3.23;1.70;;;24.70;87.40;;;;;;5051354;28;20492;-70
2023/05/31 11:16:26;;;;;;;2.90;2.13;;;24.70;85.30;;;;;;5051768;28;20478;-71
2023/05/31 11:19:04;;;;;;;3.20;2.07;;;24.90;84.90;;;;;;5051747;28;20522;-70
2023/05/31 11:21:48;;;;;;;3.50;2.00;;;24.90;88.00;;;;;;5051182;28;20501;-70
2023/05/31 11:24:29;;;;;;;2.27;2.00;;;24.90;83.50;;;;;;5051832;28;20469;-70
2023/05/31 11:26:57;;;;;;;3.10;2.10;;;24.80;87.00;;;;;;5052538;28;20486;-71
2023/05/31 11:29:24;;;;;;;2.00;1.73;;;24.90;85.40;;;;;;5052842;28;20456;-72
2023/05/31 11:31:58;;;;;;;2.40;2.13;;;25.10;88.20;;;;;;5052789;28;20549;-72
2023/05/31 11:34:27;;;;;;;3.00;2.30;;;25.20;85.50;;;;;;5053066;28;20455;-71
2023/05/31 11:36:57;;;;;;;2.43;2.00;;;25.40;88.50;;;;;;5051971;28;20976;-69
2023/05/31 11:39:25;;;;;;;2.13;1.83;;;25.80;87.60;;;;;;5050786;28;20934;-69
2023/05/31 11:41:53;;;;;;;3.93;2.63;;;26.10;83.40;;;;;;5051616;28;20954;-69
2023/05/31 11:44:25;;;;;;;2.77;2.27;;;26.40;86.20;;;;;;5051465;28;20460;-72
2023/05/31 11:46:59;;;;;;;2.87;2.03;;;26.60;82.10;;;;;;5051313;28;20461;-70
2023/05/31 11:49:25;;;;;;;2.10;1.90;;;26.60;82.40;;;;;;5051197;28;20466;-70
2023/05/31 11:51:56;;;;;;;3.00;2.30;;;26.60;85.40;;;;;;5051065;28;20461;-70
2023/05/31 11:54:27;;;;;;;2.67;1.87;;;26.60;84.60;;;;;;5051161;28;20831;-70
2023/05/31 11:56:57;;;;;;;3.60;2.33;;;26.80;84.40;;;;;;5050598;28;20488;-69
2023/05/31 11:59:25;;;;;;;2.77;2.00;;;27.00;82.70;;;;;;5051531;28;20509;-69
2023/05/31 12:01:51;;;;;;;2.67;2.17;;;27.00;81.80;;;;;;5050478;28;20459;-71
2023/05/31 12:04:19;;;;;;;3.40;1.97;;;27.10;83.90;;;;;;5050339;28;20473;-68
2023/05/31 12:06:46;;;;;;;2.20;1.87;;;27.10;80.30;;;;;;5050387;28;20528;-68
2023/05/31 12:09:14;;;;;;;2.73;2.10;;;27.20;80.80;;;;;;5049699;28;20462;-67
2023/05/31 12:11:41;;;;;;;2.23;2.00;;;27.20;77.90;;;;;;5050479;28;20473;-68
2023/05/31 12:14:07;;;;;;;2.47;1.90;;;27.20;81.30;;;;;;5050344;28;20474;-70
2023/05/31 12:16:34;;;;;;;3.00;2.07;;;27.00;80.10;;;;;;5050471;28;20516;-69
2023/05/31 12:19:01;;;;;;;2.53;2.07;;;27.00;79.60;;;;;;5051214;28;20463;-70
2023/05/31 12:21:28;;;;;;;3.20;2.27;;;26.90;78.70;;;;;;5051648;28;20470;-70
2023/05/31 12:23:57;;;;;;;7.37;2.13;;;27.10;83.50;;;;;;5051649;28;20466;-71
2023/05/31 12:26:27;;;;;;;2.10;1.90;;;27.10;79.00;;;;;;5053289;28;20467;-69
2023/05/31 12:28:55;;;;;;;2.20;2.00;;;27.00;81.80;;;;;;5050989;28;20482;-69
2023/05/31 12:31:23;;;;;;;3.00;2.00;;;27.10;82.40;;;;;;5050003;28;20463;-69
2023/05/31 12:33:59;;;;;;;2.30;1.87;;;27.10;80.10;;;;;;5050633;28;20494;-70
2023/05/31 12:36:26;;;;;;;2.73;1.87;;;26.80;80.00;;;;;;5045474;28;20881;-71
2023/05/31 12:38:57;;;;;;;2.17;1.73;;;26.70;77.50;;;;;;5049833;28;21023;-69
2023/05/31 12:41:25;;;;;;;3.37;2.10;;;26.80;80.70;;;;;;5043499;28;20474;-71
2023/05/31 12:43:54;;;;;;;2.37;1.77;;;26.90;79.30;;;;;;5051129;28;21142;-71
2023/05/31 12:46:20;;;;;;;2.27;2.00;;;26.90;77.30;;;;;;5051545;28;20835;-69
2023/05/31 12:48:48;;;;;;;3.80;1.80;;;26.80;77.30;;;;;;5051042;28;20479;-70
2023/05/31 12:51:20;;;;;;;2.00;1.70;;;26.90;78.10;;;;;;5033790;28;20471;-70
2023/05/31 12:53:47;;;;;;;3.00;2.30;;;26.90;80.20;;;;;;5051294;28;20474;-70